createdAt,value
2019-02-07T00:01:45.768Z,5.28
2019-02-07T00:04:15.478Z,5.31
2019-02-07T00:06:44.854Z,5.33
2019-02-07T00:09:14.432Z,5.34
2019-02-07T00:11:43.938Z,5.25
2019-02-07T00:14:13.425Z,5.33
2019-02-07T00:16:42.796Z,5.45
2019-02-07T00:19:12.306Z,5.43
2019-02-07T00:21:41.804Z,5.49
2019-02-07T00:24:11.382Z,5.40
2019-02-07T00:26:41.298Z,5.39
2019-02-07T00:29:10.956Z,5.49
2019-02-07T00:31:40.457Z,5.56
2019-02-07T00:34:09.951Z,5.61
2019-02-07T00:36:39.353Z,5.58
2019-02-07T00:39:09.532Z,5.51
2019-02-07T00:41:39.328Z,5.48
2019-02-07T00:44:08.806Z,5.55
2019-02-07T00:46:38.282Z,5.55
2019-02-07T00:49:07.876Z,5.61
2019-02-07T00:51:37.351Z,5.57
2019-02-07T00:54:06.923Z,5.56
2019-02-07T00:56:39.504Z,5.56
2019-02-07T00:59:07.719Z,5.58
2019-02-07T01:01:37.093Z,5.56
2019-02-07T01:04:06.610Z,5.57
2019-02-07T01:06:36.076Z,5.55
2019-02-07T01:09:08.026Z,5.53
2019-02-07T01:11:37.428Z,5.45
2019-02-07T01:14:07.034Z,5.32
2019-02-07T01:16:36.582Z,5.37
2019-02-07T01:19:05.983Z,5.36
2019-02-07T01:21:35.361Z,5.36
2019-02-07T01:24:05.221Z,5.30
2019-02-07T01:26:34.739Z,5.23
2019-02-07T01:29:04.126Z,5.23
2019-02-07T01:31:33.489Z,5.18
2019-02-07T01:34:03.000Z,5.21
2019-02-07T01:36:32.460Z,5.20
2019-02-07T01:39:02.205Z,5.08
2019-02-07T01:41:31.891Z,5.01
2019-02-07T01:44:01.372Z,4.90
2019-02-07T01:46:30.867Z,4.92
2019-02-07T01:49:00.280Z,4.82
2019-02-07T01:51:29.691Z,4.84
2019-02-07T01:53:59.472Z,4.86
2019-02-07T01:56:28.997Z,4.90
2019-02-07T01:58:58.371Z,4.85
2019-02-07T02:01:27.898Z,4.76
2019-02-07T02:03:57.542Z,4.80
2019-02-07T02:06:26.923Z,4.88
2019-02-07T02:08:56.780Z,4.96
2019-02-07T02:11:26.481Z,4.98
2019-02-07T02:13:55.864Z,4.93
2019-02-07T02:16:25.259Z,4.84
2019-02-07T02:18:54.793Z,4.98
2019-02-07T02:21:24.274Z,5.03
2019-02-07T02:23:53.746Z,4.98
2019-02-07T02:26:23.174Z,5.02
2019-02-07T02:28:52.653Z,5.02
2019-02-07T02:31:22.115Z,4.99
2019-02-07T02:33:51.717Z,4.77
2019-02-07T02:36:21.087Z,4.57
2019-02-07T02:38:50.836Z,4.54
2019-02-07T02:41:20.250Z,4.57
2019-02-07T02:43:50.072Z,4.54
2019-02-07T02:46:19.646Z,4.46
2019-02-07T02:48:49.258Z,4.51
2019-02-07T02:51:18.615Z,4.52
2019-02-07T02:53:48.244Z,4.43
2019-02-07T02:56:17.987Z,4.60
2019-02-07T02:58:47.341Z,4.60
2019-02-07T03:01:25.890Z,4.60
2019-02-07T03:04:14.280Z,4.58
2019-02-07T03:07:11.837Z,4.61
2019-02-07T03:09:58.800Z,4.63
2019-02-07T03:12:41.372Z,4.58
2019-02-07T03:15:33.943Z,4.56
2019-02-07T03:18:36.486Z,4.63
2019-02-07T03:21:23.348Z,4.61
2019-02-07T03:24:10.948Z,4.62
2019-02-07T03:27:04.355Z,4.52
2019-02-07T03:30:01.825Z,4.53
2019-02-07T03:32:56.044Z,4.47
2019-02-07T03:35:32.590Z,4.44
2019-02-07T03:38:23.990Z,4.54
2019-02-07T03:41:10.936Z,4.55
2019-02-07T03:44:17.486Z,4.47
2019-02-07T03:47:04.641Z,4.49
2019-02-07T03:49:51.448Z,4.50
2019-02-07T03:52:31.428Z,4.43
2019-02-07T03:55:29.530Z,4.30
2019-02-07T03:58:23.810Z,4.32
2019-02-07T04:01:10.714Z,4.33
2019-02-07T04:04:14.442Z,4.26
2019-02-07T04:06:59.531Z,4.26
2019-02-07T04:09:39.211Z,4.30
2019-02-07T04:12:27.693Z,4.40
2019-02-07T04:15:21.714Z,4.49
2019-02-07T04:18:10.019Z,4.55
2019-02-07T04:21:10.077Z,4.40
2019-02-07T04:23:56.809Z,4.32
2019-02-07T04:26:54.258Z,4.41
2019-02-07T04:29:41.381Z,4.48
2019-02-07T04:32:41.773Z,4.58
2019-02-07T04:35:32.085Z,4.47
2019-02-07T04:38:12.988Z,4.45
2019-02-07T04:41:00.319Z,4.57
2019-02-07T04:43:51.434Z,4.56
2019-02-07T04:46:40.979Z,4.66
2019-02-07T04:49:29.434Z,4.55
2019-02-07T04:52:21.340Z,4.31
2019-02-07T04:55:12.719Z,4.26
2019-02-07T04:58:04.302Z,4.21
2019-02-07T05:00:51.279Z,4.32
2019-02-07T05:03:40.769Z,4.51
2019-02-07T05:06:19.634Z,4.61
2019-02-07T05:09:06.387Z,4.32
2019-02-07T05:11:53.226Z,4.39
2019-02-07T05:14:44.448Z,4.52
2019-02-07T05:17:22.274Z,4.46
2019-02-07T05:20:09.546Z,4.45
2019-02-07T05:23:13.243Z,4.56
2019-02-07T05:25:57.218Z,4.46
2019-02-07T05:28:45.649Z,4.29
2019-02-07T05:31:34.216Z,4.22
2019-02-07T05:34:28.495Z,4.19
2019-02-07T05:37:15.495Z,4.19
2019-02-07T05:40:06.682Z,4.19
2019-02-07T05:42:55.073Z,4.05
2019-02-07T05:45:43.498Z,4.11
2019-02-07T05:48:32.179Z,4.13
2019-02-07T05:51:12.485Z,4.18
2019-02-07T05:54:14.110Z,4.22
2019-02-07T05:57:11.515Z,4.32
2019-02-07T06:00:11.708Z,4.56
2019-02-07T06:03:00.037Z,4.51
2019-02-07T06:05:40.194Z,4.62
2019-02-07T06:08:31.609Z,4.71
2019-02-07T06:11:22.876Z,4.73
2019-02-07T06:14:14.218Z,4.68
2019-02-07T06:17:08.777Z,4.64
2019-02-07T06:19:46.168Z,4.74
2019-02-07T06:22:53.112Z,4.74
2019-02-07T06:25:40.297Z,4.56
2019-02-07T06:28:27.148Z,4.73
2019-02-07T06:31:08.752Z,4.80
2019-02-07T06:34:01.162Z,4.83
2019-02-07T06:36:48.688Z,4.93
2019-02-07T06:39:35.796Z,5.02
2019-02-07T06:42:34.566Z,5.01
2019-02-07T06:45:22.013Z,5.03
2019-02-07T06:47:59.473Z,5.10
2019-02-07T06:50:56.791Z,5.15
2019-02-07T06:53:58.820Z,5.21
2019-02-07T06:56:39.518Z,5.34
2019-02-07T06:59:26.295Z,5.47
2019-02-07T07:02:13.307Z,5.54
2019-02-07T07:04:51.066Z,5.57
2019-02-07T07:07:42.517Z,5.67
2019-02-07T07:10:30.929Z,5.75
2019-02-07T07:13:18.627Z,5.79
2019-02-07T07:16:06.990Z,5.81
2019-02-07T07:18:55.402Z,5.86
2019-02-07T07:21:49.648Z,5.85
2019-02-07T07:24:37.940Z,5.83
2019-02-07T07:27:24.921Z,5.83
2019-02-07T07:30:05.857Z,5.83
2019-02-07T07:32:57.528Z,5.80
2019-02-07T07:35:54.565Z,5.85
2019-02-07T07:38:42.974Z,5.85
2019-02-07T07:41:30.174Z,5.90
2019-02-07T07:44:09.085Z,5.86
2019-02-07T07:46:56.102Z,5.96
2019-02-07T07:49:34.495Z,5.87
2019-02-07T07:52:29.474Z,5.80
2019-02-07T07:55:20.735Z,5.94
2019-02-07T07:58:12.468Z,6.15
2019-02-07T08:00:59.539Z,6.27
2019-02-07T08:03:44.157Z,6.42
2019-02-07T08:06:31.636Z,6.55
2019-02-07T08:09:28.835Z,6.47
2019-02-07T08:12:14.795Z,6.55
2019-02-07T08:15:01.606Z,6.63
2019-02-07T08:17:47.676Z,6.72
2019-02-07T08:20:35.020Z,6.75
2019-02-07T08:23:14.957Z,6.64
2019-02-07T08:26:09.187Z,6.57
2019-02-07T08:28:54.114Z,6.59
2019-02-07T08:31:32.940Z,6.68
2019-02-07T08:34:24.869Z,6.85
2019-02-07T08:37:28.462Z,6.96
2019-02-07T08:40:31.967Z,7.00
2019-02-07T08:43:26.303Z,7.18
2019-02-07T08:46:20.954Z,7.31
2019-02-07T08:49:09.357Z,7.42
2019-02-07T08:51:57.783Z,7.47
2019-02-07T08:54:44.763Z,7.58
2019-02-07T08:57:23.482Z,7.29
2019-02-07T09:00:14.895Z,7.13
2019-02-07T09:03:15.517Z,7.48
2019-02-07T09:05:54.253Z,7.23
2019-02-07T09:08:48.477Z,7.38
2019-02-07T09:11:35.883Z,7.11
2019-02-07T09:14:13.789Z,7.14
2019-02-07T09:17:07.955Z,6.95
2019-02-07T09:19:58.864Z,7.04
2019-02-07T09:22:50.110Z,6.48
2019-02-07T09:25:56.467Z,6.83
2019-02-07T09:28:50.955Z,6.70
2019-02-07T09:31:38.088Z,7.14
2019-02-07T09:34:25.647Z,7.35
2019-02-07T09:37:25.725Z,7.23
2019-02-07T09:40:13.298Z,7.24
2019-02-07T09:42:57.093Z,7.07
2019-02-07T09:45:47.904Z,7.20
2019-02-07T09:48:41.815Z,7.73
2019-02-07T09:51:29.104Z,7.89
2019-02-07T09:54:23.405Z,7.97
2019-02-07T09:57:14.853Z,8.10
2019-02-07T10:00:08.789Z,7.54
2019-02-07T10:02:45.412Z,7.54
2019-02-07T10:05:39.825Z,7.31
2019-02-07T10:08:27.009Z,7.47
2019-02-07T10:11:20.913Z,7.88
2019-02-07T10:14:07.881Z,7.64
2019-02-07T10:17:04.833Z,8.20
2019-02-07T10:19:52.230Z,7.96
2019-02-07T10:22:39.024Z,8.30
2019-02-07T10:25:27.866Z,7.82
2019-02-07T10:28:16.171Z,7.86
2019-02-07T10:31:10.298Z,7.81
2019-02-07T10:34:04.307Z,7.78
2019-02-07T10:36:51.632Z,7.87
2019-02-07T10:39:42.099Z,7.94
2019-02-07T10:42:24.545Z,7.80
2019-02-07T10:45:10.197Z,7.71
2019-02-07T10:48:04.614Z,7.61
2019-02-07T10:50:46.990Z,7.57
2019-02-07T10:53:40.894Z,7.31
2019-02-07T10:56:38.589Z,7.26
2019-02-07T10:59:42.730Z,7.56
2019-02-07T11:02:29.993Z,7.40
2019-02-07T11:05:17.412Z,7.38
2019-02-07T11:07:57.760Z,7.33
2019-02-07T11:10:54.020Z,7.36
2019-02-07T11:13:41.041Z,7.22
2019-02-07T11:16:41.872Z,6.81
2019-02-07T11:19:30.164Z,6.96
2019-02-07T11:22:24.603Z,7.08
2019-02-07T11:25:12.986Z,7.17
2019-02-07T11:28:10.722Z,7.05
2019-02-07T11:30:56.821Z,7.10
2019-02-07T11:34:00.355Z,7.13
2019-02-07T11:36:54.954Z,6.79
2019-02-07T11:39:49.107Z,6.85
2019-02-07T11:42:31.588Z,6.94
2019-02-07T11:45:18.840Z,7.12
2019-02-07T11:48:07.155Z,7.18
2019-02-07T11:50:58.166Z,7.04
2019-02-07T11:53:52.519Z,7.23
2019-02-07T11:56:55.999Z,7.20
2019-02-07T11:59:36.099Z,7.27
2019-02-07T12:02:17.465Z,7.19
2019-02-07T12:05:10.296Z,7.43
2019-02-07T12:08:16.601Z,7.58
2019-02-07T12:11:16.996Z,7.67
2019-02-07T12:13:56.574Z,7.67
2019-02-07T12:16:59.781Z,7.21
2019-02-07T12:19:54.289Z,7.24
2019-02-07T12:22:30.365Z,7.24
2019-02-07T12:25:18.850Z,7.29
2019-02-07T12:28:00.067Z,7.27
2019-02-07T12:30:47.295Z,7.52
2019-02-07T12:33:34.354Z,6.96
2019-02-07T12:36:30.759Z,7.30
2019-02-07T12:39:18.083Z,7.36
2019-02-07T12:42:00.726Z,7.02
2019-02-07T12:44:50.662Z,7.04
2019-02-07T12:47:51.096Z,7.19
2019-02-07T12:50:39.040Z,7.09
2019-02-07T12:53:29.977Z,7.28
2019-02-07T12:56:16.955Z,7.29
2019-02-07T12:59:05.185Z,7.37
2019-02-07T13:01:53.844Z,7.43
2019-02-07T13:04:49.663Z,7.32
2019-02-07T13:07:44.090Z,7.33
2019-02-07T13:10:34.266Z,7.19
2019-02-07T13:13:26.152Z,7.28
2019-02-07T13:16:17.119Z,7.38
2019-02-07T13:19:03.190Z,7.37
2019-02-07T13:21:54.976Z,7.33
2019-02-07T13:24:48.693Z,7.23
2019-02-07T13:27:37.142Z,7.00
2019-02-07T13:30:51.694Z,6.96
2019-02-07T13:33:55.621Z,6.92
2019-02-07T13:36:39.599Z,6.88
2019-02-07T13:39:27.676Z,6.86
2019-02-07T13:42:28.445Z,6.99
2019-02-07T13:45:21.202Z,7.24
2019-02-07T13:48:24.399Z,7.07
2019-02-07T13:51:10.816Z,6.88
2019-02-07T13:53:59.620Z,6.83
2019-02-07T13:56:46.793Z,6.63
2019-02-07T13:59:38.823Z,6.69
2019-02-07T14:02:27.949Z,6.51
2019-02-07T14:05:28.512Z,6.72
2019-02-07T14:08:13.186Z,6.64
2019-02-07T14:10:56.997Z,6.41
2019-02-07T14:13:43.913Z,6.43
2019-02-07T14:16:30.933Z,6.36
2019-02-07T14:19:28.851Z,6.37
2019-02-07T14:22:17.240Z,6.33
2019-02-07T14:25:23.460Z,6.35
2019-02-07T14:28:20.610Z,6.43
2019-02-07T14:31:18.069Z,6.42
2019-02-07T14:34:05.057Z,6.32
2019-02-07T14:36:56.237Z,6.47
2019-02-07T14:39:50.568Z,6.54
2019-02-07T14:42:32.378Z,6.68
2019-02-07T14:45:24.086Z,6.73
2019-02-07T14:47:53.772Z,6.65
2019-02-07T14:50:24.578Z,6.72
2019-02-07T14:52:54.515Z,6.65
2019-02-07T14:55:24.257Z,6.54
2019-02-07T14:57:53.935Z,6.50
2019-02-07T15:00:25.435Z,6.58
2019-02-07T15:02:54.807Z,6.58
2019-02-07T15:05:24.295Z,6.48
2019-02-07T15:07:53.799Z,6.51
2019-02-07T15:10:23.590Z,6.55
2019-02-07T15:12:52.976Z,6.58
2019-02-07T15:15:22.545Z,6.34
2019-02-07T15:17:52.024Z,6.05
2019-02-07T15:20:26.136Z,6.01
2019-02-07T15:22:52.825Z,5.98
2019-02-07T15:25:22.343Z,5.98
2019-02-07T15:27:51.700Z,5.95
2019-02-07T15:30:21.425Z,6.11
2019-02-07T15:32:50.914Z,6.14
2019-02-07T15:35:24.001Z,6.12
2019-02-07T15:37:53.443Z,6.19
2019-02-07T15:40:25.593Z,6.16
2019-02-07T15:42:55.254Z,5.89
2019-02-07T15:45:24.894Z,5.97
2019-02-07T15:47:54.256Z,5.80
2019-02-07T15:50:24.513Z,5.80
2019-02-07T15:52:56.513Z,5.87
2019-02-07T15:55:26.185Z,5.91
2019-02-07T15:57:55.662Z,5.91
2019-02-07T16:00:49.331Z,5.98
2019-02-07T16:03:41.083Z,5.87
2019-02-07T16:06:10.483Z,5.62
2019-02-07T16:08:39.957Z,5.58
2019-02-07T16:11:09.408Z,5.52
2019-02-07T16:13:39.020Z,5.56
2019-02-07T16:16:08.534Z,5.66
2019-02-07T16:18:38.031Z,5.61
2019-02-07T16:21:07.759Z,5.59
2019-02-07T16:23:37.131Z,5.56
2019-02-07T16:26:06.504Z,5.54
2019-02-07T16:28:36.032Z,5.69
2019-02-07T16:31:06.416Z,5.49
2019-02-07T16:33:35.901Z,5.51
2019-02-07T16:36:06.340Z,5.53
2019-02-07T16:38:35.797Z,5.38
2019-02-07T16:41:05.646Z,5.41
2019-02-07T16:43:35.060Z,5.50
2019-02-07T16:46:05.049Z,5.56
2019-02-07T16:48:34.434Z,5.65
2019-02-07T16:51:04.495Z,5.58
2019-02-07T16:53:33.977Z,5.36
2019-02-07T16:56:03.831Z,5.43
2019-02-07T16:58:33.238Z,5.43
2019-02-07T17:01:02.754Z,5.42
2019-02-07T17:03:32.241Z,5.39
2019-02-07T17:06:01.880Z,5.40
2019-02-07T17:08:31.312Z,5.45
2019-02-07T17:11:01.172Z,5.53
2019-02-07T17:13:31.072Z,5.47
2019-02-07T17:16:00.725Z,5.48
2019-02-07T17:18:30.111Z,5.48
2019-02-07T17:20:59.552Z,5.49
2019-02-07T17:23:29.530Z,5.40
2019-02-07T17:25:59.066Z,5.37
2019-02-07T17:28:28.695Z,5.23
2019-02-07T17:30:58.155Z,5.17
2019-02-07T17:33:27.533Z,5.15
2019-02-07T17:35:57.129Z,5.02
2019-02-07T17:38:28.074Z,5.17
2019-02-07T17:40:57.551Z,5.15
2019-02-07T17:43:27.043Z,5.25
2019-02-07T17:45:56.443Z,5.19
2019-02-07T17:48:26.036Z,5.17
2019-02-07T17:50:55.550Z,5.13
2019-02-07T17:53:24.934Z,5.03
2019-02-07T17:55:54.497Z,5.03
2019-02-07T17:58:24.204Z,5.03
2019-02-07T18:01:00.224Z,4.85
2019-02-07T18:03:32.582Z,4.85
2019-02-07T18:06:02.095Z,4.81
2019-02-07T18:08:31.760Z,4.86
2019-02-07T18:11:01.204Z,4.84
2019-02-07T18:13:30.938Z,4.83
2019-02-07T18:16:00.437Z,4.96
2019-02-07T18:18:29.880Z,4.97
2019-02-07T18:20:59.276Z,5.07
2019-02-07T18:23:29.133Z,4.98
2019-02-07T18:25:58.676Z,4.96
2019-02-07T18:28:28.066Z,4.99
2019-02-07T18:30:57.447Z,4.92
2019-02-07T18:33:27.508Z,4.78
2019-02-07T18:35:58.430Z,4.93
2019-02-07T18:38:28.071Z,5.01
2019-02-07T18:40:57.654Z,5.00
2019-02-07T18:43:27.117Z,4.97
2019-02-07T18:45:56.594Z,4.97
2019-02-07T18:48:26.021Z,4.99
2019-02-07T18:50:55.395Z,4.89
2019-02-07T18:53:25.246Z,4.88
2019-02-07T18:55:56.601Z,4.86
2019-02-07T18:58:26.089Z,4.85
2019-02-07T19:00:55.481Z,4.77
2019-02-07T19:03:26.253Z,4.69
2019-02-07T19:05:55.742Z,4.68
2019-02-07T19:08:25.289Z,4.64
2019-02-07T19:10:55.016Z,4.60
2019-02-07T19:13:24.498Z,4.62
2019-02-07T19:15:58.120Z,4.65
2019-02-07T19:18:27.696Z,4.62
2019-02-07T19:20:57.198Z,4.70
2019-02-07T19:23:26.702Z,4.71
2019-02-07T19:25:56.288Z,4.75
2019-02-07T19:28:25.789Z,4.77
2019-02-07T19:30:55.264Z,4.77
2019-02-07T19:33:24.681Z,4.77
2019-02-07T19:35:54.072Z,4.85
2019-02-07T19:38:23.715Z,4.84
2019-02-07T19:40:53.233Z,4.81
2019-02-07T19:43:22.649Z,4.83
2019-02-07T19:45:52.057Z,4.83
2019-02-07T19:48:21.573Z,4.81
2019-02-07T19:50:51.077Z,4.78
2019-02-07T19:53:20.832Z,4.72
2019-02-07T19:55:50.364Z,4.75
2019-02-07T19:58:19.874Z,4.77
2019-02-07T20:00:49.461Z,4.80
2019-02-07T20:03:19.087Z,4.80
2019-02-07T20:05:48.639Z,4.78
2019-02-07T20:08:18.709Z,4.84
2019-02-07T20:10:48.123Z,4.88
2019-02-07T20:13:17.614Z,4.90
2019-02-07T20:15:47.181Z,4.85
2019-02-07T20:18:16.611Z,4.86
2019-02-07T20:20:46.121Z,4.83
2019-02-07T20:23:15.617Z,4.89
2019-02-07T20:25:45.372Z,4.90
2019-02-07T20:28:14.737Z,4.79
2019-02-07T20:30:44.574Z,4.83
2019-02-07T20:33:14.095Z,4.73
2019-02-07T20:35:44.048Z,4.52
2019-02-07T20:38:13.675Z,4.49
2019-02-07T20:40:43.497Z,4.25
2019-02-07T20:43:12.989Z,4.36
2019-02-07T20:45:42.376Z,4.44
2019-02-07T20:48:11.917Z,4.34
2019-02-07T20:50:41.383Z,4.36
2019-02-07T20:53:11.231Z,4.43
2019-02-07T20:55:40.678Z,4.49
2019-02-07T20:58:10.408Z,4.43
2019-02-07T21:00:40.213Z,4.25
2019-02-07T21:03:10.031Z,4.30
2019-02-07T21:05:39.746Z,4.21
2019-02-07T21:08:09.334Z,4.20
2019-02-07T21:10:38.992Z,4.29
2019-02-07T21:13:08.754Z,4.15
2019-02-07T21:15:38.155Z,4.13
2019-02-07T21:18:07.795Z,4.14
2019-02-07T21:20:37.402Z,4.18
2019-02-07T21:23:07.276Z,4.20
2019-02-07T21:25:40.186Z,4.17
2019-02-07T21:28:10.055Z,4.19
2019-02-07T21:30:39.411Z,4.25
2019-02-07T21:33:08.918Z,4.30
2019-02-07T21:35:38.371Z,4.32
2019-02-07T21:38:08.257Z,4.40
2019-02-07T21:40:37.684Z,4.38
2019-02-07T21:43:07.415Z,4.42
2019-02-07T21:45:37.098Z,4.33
2019-02-07T21:48:09.591Z,4.36
2019-02-07T21:50:39.111Z,4.21
2019-02-07T21:53:08.602Z,4.11
2019-02-07T21:55:38.568Z,4.08
2019-02-07T21:58:08.675Z,4.14
2019-02-07T22:00:43.362Z,4.09
2019-02-07T22:03:14.546Z,4.10
2019-02-07T22:05:44.270Z,4.17
2019-02-07T22:08:13.989Z,4.30
2019-02-07T22:10:43.561Z,4.27
2019-02-07T22:13:13.402Z,4.39
2019-02-07T22:15:42.885Z,4.12
2019-02-07T22:18:12.470Z,4.15
2019-02-07T22:20:41.961Z,4.21
2019-02-07T22:23:11.373Z,4.30
2019-02-07T22:25:40.749Z,4.39
2019-02-07T22:28:11.203Z,4.39
2019-02-07T22:30:40.826Z,4.46
2019-02-07T22:33:10.321Z,4.51
2019-02-07T22:35:39.683Z,4.55
2019-02-07T22:38:09.686Z,4.53
2019-02-07T22:40:39.152Z,4.53
2019-02-07T22:43:08.911Z,4.52
2019-02-07T22:45:38.415Z,4.53
2019-02-07T22:48:08.228Z,4.46
2019-02-07T22:50:37.594Z,4.50
2019-02-07T22:53:07.214Z,4.52
2019-02-07T22:55:36.697Z,4.48
2019-02-07T22:58:08.188Z,4.53
2019-02-07T23:01:28.278Z,4.50
2019-02-07T23:04:03.437Z,4.49
2019-02-07T23:06:33.210Z,4.30
2019-02-07T23:09:02.593Z,4.33
2019-02-07T23:11:31.991Z,4.40
2019-02-07T23:14:01.491Z,4.39
2019-02-07T23:16:31.253Z,4.41
2019-02-07T23:19:00.963Z,4.28
2019-02-07T23:21:30.719Z,4.33
2019-02-07T23:24:00.361Z,4.37
2019-02-07T23:26:29.832Z,4.34
2019-02-07T23:28:59.356Z,4.35
2019-02-07T23:31:29.115Z,4.33
2019-02-07T23:33:58.507Z,4.29
2019-02-07T23:36:28.115Z,4.30
2019-02-07T23:38:57.580Z,4.23
2019-02-07T23:41:27.048Z,4.19
2019-02-07T23:43:56.474Z,4.18
2019-02-07T23:46:26.221Z,4.22
2019-02-07T23:48:55.722Z,4.08
2019-02-07T23:51:25.310Z,4.06
2019-02-07T23:53:54.686Z,3.92
2019-02-07T23:56:24.065Z,4.05
2019-02-07T23:58:53.606Z,4.00
